sensor_id;sensor_type;location;lat;lon;timestamp;temperature;humidity
43671;DHT22;29267;50.906;7.248;2023-09-08T00:01:58;18.40;99.90
43671;DHT22;29267;50.906;7.248;2023-09-08T00:04:23;18.50;99.90
43671;DHT22;29267;50.906;7.248;2023-09-08T00:06:49;18.60;99.90
43671;DHT22;29267;50.906;7.248;2023-09-08T00:09:14;18.70;99.90
43671;DHT22;29267;50.906;7.248;2023-09-08T00:11:40;18.70;99.90
43671;DHT22;29267;50.906;7.248;2023-09-08T00:14:05;18.70;99.90
43671;DHT22;29267;50.906;7.248;2023-09-08T00:16:31;18.70;99.90
43671;DHT22;29267;50.906;7.248;2023-09-08T00:18:57;18.70;99.90
43671;DHT22;29267;50.906;7.248;2023-09-08T00:21:26;18.60;99.90
43671;DHT22;29267;50.906;7.248;2023-09-08T00:23:53;18.60;99.90
43671;DHT22;29267;50.906;7.248;2023-09-08T00:26:19;18.70;99.90
43671;DHT22;29267;50.906;7.248;2023-09-08T00:28:44;18.70;99.90
43671;DHT22;29267;50.906;7.248;2023-09-08T00:31:10;18.60;99.90
43671;DHT22;29267;50.906;7.248;2023-09-08T00:33:36;18.60;99.90
43671;DHT22;29267;50.906;7.248;2023-09-08T00:36:02;18.60;99.90
43671;DHT22;29267;50.906;7.248;2023-09-08T00:38:28;18.40;99.90
43671;DHT22;29267;50.906;7.248;2023-09-08T00:40:53;18.30;99.90
43671;DHT22;29267;50.906;7.248;2023-09-08T00:43:19;18.20;99.90
43671;DHT22;29267;50.906;7.248;2023-09-08T00:45:45;18.10;99.90
43671;DHT22;29267;50.906;7.248;2023-09-08T00:48:11;18.00;99.90
43671;DHT22;29267;50.906;7.248;2023-09-08T00:50:38;17.90;99.90
43671;DHT22;29267;50.906;7.248;2023-09-08T00:53:05;17.90;99.90
43671;DHT22;29267;50.906;7.248;2023-09-08T00:55:31;17.90;99.90
43671;DHT22;29267;50.906;7.248;2023-09-08T00:57:57;17.90;99.90
43671;DHT22;29267;50.906;7.248;2023-09-08T01:00:24;17.90;99.90
43671;DHT22;29267;50.906;7.248;2023-09-08T01:02:50;17.80;99.90
43671;DHT22;29267;50.906;7.248;2023-09-08T01:05:16;17.70;99.90
43671;DHT22;29267;50.906;7.248;2023-09-08T01:07:42;17.80;99.90
43671;DHT22;29267;50.906;7.248;2023-09-08T01:10:09;17.70;99.90
43671;DHT22;29267;50.906;7.248;2023-09-08T01:12:35;17.70;99.90
43671;DHT22;29267;50.906;7.248;2023-09-08T01:15:01;17.60;99.90
43671;DHT22;29267;50.906;7.248;2023-09-08T01:17:27;17.60;99.90
43671;DHT22;29267;50.906;7.248;2023-09-08T01:19:55;17.50;99.90
43671;DHT22;29267;50.906;7.248;2023-09-08T01:22:40;17.60;99.90
43671;DHT22;29267;50.906;7.248;2023-09-08T01:25:23;17.60;99.90
43671;DHT22;29267;50.906;7.248;2023-09-08T01:27:52;17.50;99.90
43671;DHT22;29267;50.906;7.248;2023-09-08T01:30:18;17.50;99.90
43671;DHT22;29267;50.906;7.248;2023-09-08T01:32:44;17.60;99.90
43671;DHT22;29267;50.906;7.248;2023-09-08T01:35:11;17.60;99.90
43671;DHT22;29267;50.906;7.248;2023-09-08T01:37:40;17.70;99.90
43671;DHT22;29267;50.906;7.248;2023-09-08T01:40:07;17.80;99.90
43671;DHT22;29267;50.906;7.248;2023-09-08T01:42:34;18.00;99.90
43671;DHT22;29267;50.906;7.248;2023-09-08T01:44:59;18.00;99.90
43671;DHT22;29267;50.906;7.248;2023-09-08T01:47:27;17.90;99.90
43671;DHT22;29267;50.906;7.248;2023-09-08T01:49:53;17.90;99.90
43671;DHT22;29267;50.906;7.248;2023-09-08T01:52:18;17.90;99.90
43671;DHT22;29267;50.906;7.248;2023-09-08T01:54:44;17.80;99.90
43671;DHT22;29267;50.906;7.248;2023-09-08T01:57:09;17.80;99.90
43671;DHT22;29267;50.906;7.248;2023-09-08T01:59:35;17.70;99.90
43671;DHT22;29267;50.906;7.248;2023-09-08T02:02:02;17.70;99.90
43671;DHT22;29267;50.906;7.248;2023-09-08T02:04:28;17.60;99.90
43671;DHT22;29267;50.906;7.248;2023-09-08T02:06:54;17.60;99.90
43671;DHT22;29267;50.906;7.248;2023-09-08T02:09:20;17.60;99.90
43671;DHT22;29267;50.906;7.248;2023-09-08T02:11:46;17.60;99.90
43671;DHT22;29267;50.906;7.248;2023-09-08T02:14:11;17.50;99.90
43671;DHT22;29267;50.906;7.248;2023-09-08T02:16:37;17.40;99.90
43671;DHT22;29267;50.906;7.248;2023-09-08T02:19:02;17.30;99.90
43671;DHT22;29267;50.906;7.248;2023-09-08T02:21:28;17.30;99.90
43671;DHT22;29267;50.906;7.248;2023-09-08T02:23:53;17.30;99.90
43671;DHT22;29267;50.906;7.248;2023-09-08T02:26:19;17.20;99.90
43671;DHT22;29267;50.906;7.248;2023-09-08T02:28:45;17.10;99.90
43671;DHT22;29267;50.906;7.248;2023-09-08T02:31:10;17.20;99.90
43671;DHT22;29267;50.906;7.248;2023-09-08T02:33:36;17.20;99.90
43671;DHT22;29267;50.906;7.248;2023-09-08T02:36:05;17.20;99.90
43671;DHT22;29267;50.906;7.248;2023-09-08T02:38:32;17.10;99.90
43671;DHT22;29267;50.906;7.248;2023-09-08T02:40:57;17.10;99.90
43671;DHT22;29267;50.906;7.248;2023-09-08T02:43:23;17.00;99.90
43671;DHT22;29267;50.906;7.248;2023-09-08T02:45:49;17.10;99.90
43671;DHT22;29267;50.906;7.248;2023-09-08T02:48:15;17.00;99.90
43671;DHT22;29267;50.906;7.248;2023-09-08T02:50:42;17.00;99.90
43671;DHT22;29267;50.906;7.248;2023-09-08T02:53:07;17.10;99.90
43671;DHT22;29267;50.906;7.248;2023-09-08T02:55:33;17.20;99.90
43671;DHT22;29267;50.906;7.248;2023-09-08T02:57:58;17.10;99.90
43671;DHT22;29267;50.906;7.248;2023-09-08T03:00:24;17.20;99.90
43671;DHT22;29267;50.906;7.248;2023-09-08T03:02:50;17.20;99.90
43671;DHT22;29267;50.906;7.248;2023-09-08T03:05:16;17.20;99.90
43671;DHT22;29267;50.906;7.248;2023-09-08T03:07:41;17.10;99.90
43671;DHT22;29267;50.906;7.248;2023-09-08T03:10:07;17.10;99.90
43671;DHT22;29267;50.906;7.248;2023-09-08T03:12:33;17.10;99.90
43671;DHT22;29267;50.906;7.248;2023-09-08T03:14:59;17.00;99.90
43671;DHT22;29267;50.906;7.248;2023-09-08T03:17:25;16.90;99.90
43671;DHT22;29267;50.906;7.248;2023-09-08T03:19:50;16.90;99.90
43671;DHT22;29267;50.906;7.248;2023-09-08T03:22:16;17.00;99.90
43671;DHT22;29267;50.906;7.248;2023-09-08T03:24:42;17.00;99.90
43671;DHT22;29267;50.906;7.248;2023-09-08T03:27:07;16.90;99.90
43671;DHT22;29267;50.906;7.248;2023-09-08T03:29:33;16.90;99.90
43671;DHT22;29267;50.906;7.248;2023-09-08T03:31:59;16.90;99.90
43671;DHT22;29267;50.906;7.248;2023-09-08T03:34:24;16.80;99.90
43671;DHT22;29267;50.906;7.248;2023-09-08T03:36:52;16.80;99.90
43671;DHT22;29267;50.906;7.248;2023-09-08T03:39:17;16.90;99.90
43671;DHT22;29267;50.906;7.248;2023-09-08T03:41:45;16.90;99.90
43671;DHT22;29267;50.906;7.248;2023-09-08T03:44:11;16.80;99.90
43671;DHT22;29267;50.906;7.248;2023-09-08T03:46:37;16.80;99.90
43671;DHT22;29267;50.906;7.248;2023-09-08T03:49:02;16.80;99.90
43671;DHT22;29267;50.906;7.248;2023-09-08T03:51:28;16.70;99.90
43671;DHT22;29267;50.906;7.248;2023-09-08T03:53:54;16.60;99.90
43671;DHT22;29267;50.906;7.248;2023-09-08T03:56:20;16.50;99.90
43671;DHT22;29267;50.906;7.248;2023-09-08T03:58:46;16.50;99.90
43671;DHT22;29267;50.906;7.248;2023-09-08T04:01:12;16.40;99.90
43671;DHT22;29267;50.906;7.248;2023-09-08T04:03:37;16.40;99.90
43671;DHT22;29267;50.906;7.248;2023-09-08T04:06:03;16.50;99.90
43671;DHT22;29267;50.906;7.248;2023-09-08T04:08:29;16.40;99.90
43671;DHT22;29267;50.906;7.248;2023-09-08T04:10:54;16.40;99.90
43671;DHT22;29267;50.906;7.248;2023-09-08T04:13:20;16.40;99.90
43671;DHT22;29267;50.906;7.248;2023-09-08T04:15:45;16.50;99.90
43671;DHT22;29267;50.906;7.248;2023-09-08T04:18:11;16.60;99.90
43671;DHT22;29267;50.906;7.248;2023-09-08T04:20:36;16.60;99.90
43671;DHT22;29267;50.906;7.248;2023-09-08T04:23:02;16.80;99.90
43671;DHT22;29267;50.906;7.248;2023-09-08T04:25:28;16.80;99.90
43671;DHT22;29267;50.906;7.248;2023-09-08T04:27:53;16.70;99.90
43671;DHT22;29267;50.906;7.248;2023-09-08T04:30:19;16.60;99.90
43671;DHT22;29267;50.906;7.248;2023-09-08T04:32:44;16.70;99.90
43671;DHT22;29267;50.906;7.248;2023-09-08T04:38:32;16.60;99.90
43671;DHT22;29267;50.906;7.248;2023-09-08T04:40:57;16.50;99.90
43671;DHT22;29267;50.906;7.248;2023-09-08T04:43:23;16.40;99.90
43671;DHT22;29267;50.906;7.248;2023-09-08T04:45:49;16.50;99.90
43671;DHT22;29267;50.906;7.248;2023-09-08T04:48:15;16.50;99.90
43671;DHT22;29267;50.906;7.248;2023-09-08T04:50:41;16.50;99.90
43671;DHT22;29267;50.906;7.248;2023-09-08T04:53:07;16.50;99.90
43671;DHT22;29267;50.906;7.248;2023-09-08T04:55:32;16.50;99.90
43671;DHT22;29267;50.906;7.248;2023-09-08T04:57:58;16.50;99.90
43671;DHT22;29267;50.906;7.248;2023-09-08T05:00:23;16.60;99.90
43671;DHT22;29267;50.906;7.248;2023-09-08T05:02:49;16.60;99.90
43671;DHT22;29267;50.906;7.248;2023-09-08T05:05:14;16.60;99.90
43671;DHT22;29267;50.906;7.248;2023-09-08T05:07:40;16.60;99.90
43671;DHT22;29267;50.906;7.248;2023-09-08T05:10:06;16.60;99.90
43671;DHT22;29267;50.906;7.248;2023-09-08T05:12:31;16.50;99.90
43671;DHT22;29267;50.906;7.248;2023-09-08T05:14:57;16.60;99.90
43671;DHT22;29267;50.906;7.248;2023-09-08T05:17:31;16.50;99.90
43671;DHT22;29267;50.906;7.248;2023-09-08T05:19:56;16.50;99.90
43671;DHT22;29267;50.906;7.248;2023-09-08T05:22:22;16.60;99.90
43671;DHT22;29267;50.906;7.248;2023-09-08T05:24:47;16.50;99.90
43671;DHT22;29267;50.906;7.248;2023-09-08T05:27:13;16.60;99.90
43671;DHT22;29267;50.906;7.248;2023-09-08T05:29:39;16.60;99.90
43671;DHT22;29267;50.906;7.248;2023-09-08T05:32:04;16.60;99.90
43671;DHT22;29267;50.906;7.248;2023-09-08T05:34:30;16.70;99.90
43671;DHT22;29267;50.906;7.248;2023-09-08T05:36:55;16.80;99.90
43671;DHT22;29267;50.906;7.248;2023-09-08T05:39:21;16.80;99.90
43671;DHT22;29267;50.906;7.248;2023-09-08T05:41:47;16.90;99.90
43671;DHT22;29267;50.906;7.248;2023-09-08T05:44:12;17.00;99.90
43671;DHT22;29267;50.906;7.248;2023-09-08T05:46:38;17.20;99.90
43671;DHT22;29267;50.906;7.248;2023-09-08T05:49:03;17.30;99.90
43671;DHT22;29267;50.906;7.248;2023-09-08T05:51:29;17.50;99.90
43671;DHT22;29267;50.906;7.248;2023-09-08T05:53:55;17.60;99.90
43671;DHT22;29267;50.906;7.248;2023-09-08T05:56:24;17.70;99.90
43671;DHT22;29267;50.906;7.248;2023-09-08T05:58:51;17.70;99.90
43671;DHT22;29267;50.906;7.248;2023-09-08T06:01:17;17.90;99.90
43671;DHT22;29267;50.906;7.248;2023-09-08T06:03:43;18.10;99.90
43671;DHT22;29267;50.906;7.248;2023-09-08T06:06:09;18.60;99.90
43671;DHT22;29267;50.906;7.248;2023-09-08T06:08:34;19.10;99.90
43671;DHT22;29267;50.906;7.248;2023-09-08T06:11:00;19.70;99.90
43671;DHT22;29267;50.906;7.248;2023-09-08T06:13:25;20.10;99.90
43671;DHT22;29267;50.906;7.248;2023-09-08T06:15:52;20.40;99.90
43671;DHT22;29267;50.906;7.248;2023-09-08T06:18:17;20.60;99.90
43671;DHT22;29267;50.906;7.248;2023-09-08T06:20:47;20.50;99.90
43671;DHT22;29267;50.906;7.248;2023-09-08T06:23:13;20.50;99.90
43671;DHT22;29267;50.906;7.248;2023-09-08T06:25:39;20.40;99.90
43671;DHT22;29267;50.906;7.248;2023-09-08T06:28:04;20.30;99.90
43671;DHT22;29267;50.906;7.248;2023-09-08T06:30:30;20.20;99.90
43671;DHT22;29267;50.906;7.248;2023-09-08T06:32:56;20.30;99.90
43671;DHT22;29267;50.906;7.248;2023-09-08T06:35:21;20.30;99.90
43671;DHT22;29267;50.906;7.248;2023-09-08T06:37:47;20.20;99.90
43671;DHT22;29267;50.906;7.248;2023-09-08T06:40:12;20.20;99.90
43671;DHT22;29267;50.906;7.248;2023-09-08T06:42:38;20.20;99.90
43671;DHT22;29267;50.906;7.248;2023-09-08T06:45:04;20.30;99.90
43671;DHT22;29267;50.906;7.248;2023-09-08T06:47:30;20.40;99.90
43671;DHT22;29267;50.906;7.248;2023-09-08T06:49:55;20.50;99.90
43671;DHT22;29267;50.906;7.248;2023-09-08T06:52:21;20.60;99.90
43671;DHT22;29267;50.906;7.248;2023-09-08T06:54:47;20.90;99.90
43671;DHT22;29267;50.906;7.248;2023-09-08T06:57:13;21.70;99.90
43671;DHT22;29267;50.906;7.248;2023-09-08T06:59:38;22.90;99.90
43671;DHT22;29267;50.906;7.248;2023-09-08T07:02:04;24.60;98.80
43671;DHT22;29267;50.906;7.248;2023-09-08T07:04:30;25.80;97.10
43671;DHT22;29267;50.906;7.248;2023-09-08T07:06:56;26.90;94.60
43671;DHT22;29267;50.906;7.248;2023-09-08T07:09:21;28.40;92.10
43671;DHT22;29267;50.906;7.248;2023-09-08T07:11:47;28.80;91.30
43671;DHT22;29267;50.906;7.248;2023-09-08T07:14:12;29.90;89.50
43671;DHT22;29267;50.906;7.248;2023-09-08T07:16:38;29.90;88.50
43671;DHT22;29267;50.906;7.248;2023-09-08T07:19:04;30.30;87.80
43671;DHT22;29267;50.906;7.248;2023-09-08T07:21:30;30.40;86.30
43671;DHT22;29267;50.906;7.248;2023-09-08T07:23:55;30.70;88.50
43671;DHT22;29267;50.906;7.248;2023-09-08T07:26:21;31.50;84.60
43671;DHT22;29267;50.906;7.248;2023-09-08T07:28:47;31.40;84.00
43671;DHT22;29267;50.906;7.248;2023-09-08T07:31:14;31.70;83.30
43671;DHT22;29267;50.906;7.248;2023-09-08T07:33:39;31.80;82.60
43671;DHT22;29267;50.906;7.248;2023-09-08T07:36:06;31.30;81.70
43671;DHT22;29267;50.906;7.248;2023-09-08T07:38:32;31.60;80.70
43671;DHT22;29267;50.906;7.248;2023-09-08T07:40:57;32.10;79.90
43671;DHT22;29267;50.906;7.248;2023-09-08T07:43:25;32.00;81.10
43671;DHT22;29267;50.906;7.248;2023-09-08T07:45:51;32.40;80.80
43671;DHT22;29267;50.906;7.248;2023-09-08T07:48:16;33.00;79.30
43671;DHT22;29267;50.906;7.248;2023-09-08T07:50:42;32.90;76.80
43671;DHT22;29267;50.906;7.248;2023-09-08T07:53:08;32.60;79.80
43671;DHT22;29267;50.906;7.248;2023-09-08T07:55:33;32.10;78.90
43671;DHT22;29267;50.906;7.248;2023-09-08T07:58:00;32.20;78.20
43671;DHT22;29267;50.906;7.248;2023-09-08T08:00:26;32.50;79.20
43671;DHT22;29267;50.906;7.248;2023-09-08T08:02:54;33.10;78.40
43671;DHT22;29267;50.906;7.248;2023-09-08T08:05:20;32.20;77.30
43671;DHT22;29267;50.906;7.248;2023-09-08T08:07:46;31.90;77.40
43671;DHT22;29267;50.906;7.248;2023-09-08T08:10:12;31.70;79.00
43671;DHT22;29267;50.906;7.248;2023-09-08T08:12:39;32.00;79.80
43671;DHT22;29267;50.906;7.248;2023-09-08T08:15:05;33.10;77.80
43671;DHT22;29267;50.906;7.248;2023-09-08T08:17:31;33.40;77.70
43671;DHT22;29267;50.906;7.248;2023-09-08T08:19:57;33.20;77.00
43671;DHT22;29267;50.906;7.248;2023-09-08T08:22:32;33.20;76.80
43671;DHT22;29267;50.906;7.248;2023-09-08T08:24:58;33.00;78.20
43671;DHT22;29267;50.906;7.248;2023-09-08T08:27:23;33.30;78.80
43671;DHT22;29267;50.906;7.248;2023-09-08T08:29:49;32.90;78.90
43671;DHT22;29267;50.906;7.248;2023-09-08T08:32:16;33.80;76.20
43671;DHT22;29267;50.906;7.248;2023-09-08T08:34:42;33.90;75.60
43671;DHT22;29267;50.906;7.248;2023-09-08T08:37:07;33.60;77.30
43671;DHT22;29267;50.906;7.248;2023-09-08T08:39:33;33.10;77.10
43671;DHT22;29267;50.906;7.248;2023-09-08T08:42:06;32.60;77.00
43671;DHT22;29267;50.906;7.248;2023-09-08T08:44:32;33.00;79.70
43671;DHT22;29267;50.906;7.248;2023-09-08T08:46:58;33.00;78.40
43671;DHT22;29267;50.906;7.248;2023-09-08T08:49:25;33.40;77.10
43671;DHT22;29267;50.906;7.248;2023-09-08T08:51:51;33.70;77.20
43671;DHT22;29267;50.906;7.248;2023-09-08T08:54:17;33.90;77.00
43671;DHT22;29267;50.906;7.248;2023-09-08T08:56:43;33.70;76.50
43671;DHT22;29267;50.906;7.248;2023-09-08T08:59:09;33.80;76.90
43671;DHT22;29267;50.906;7.248;2023-09-08T09:01:36;34.00;75.30
43671;DHT22;29267;50.906;7.248;2023-09-08T09:04:05;33.70;77.60
43671;DHT22;29267;50.906;7.248;2023-09-08T09:06:31;33.80;76.20
43671;DHT22;29267;50.906;7.248;2023-09-08T09:08:57;33.70;77.20
43671;DHT22;29267;50.906;7.248;2023-09-08T09:11:23;34.70;75.40
43671;DHT22;29267;50.906;7.248;2023-09-08T09:13:49;34.70;75.30
43671;DHT22;29267;50.906;7.248;2023-09-08T09:16:14;34.10;76.00
43671;DHT22;29267;50.906;7.248;2023-09-08T09:18:59;34.10;77.50
43671;DHT22;29267;50.906;7.248;2023-09-08T09:21:44;33.70;75.70
43671;DHT22;29267;50.906;7.248;2023-09-08T09:24:34;33.60;76.40
43671;DHT22;29267;50.906;7.248;2023-09-08T09:27:03;33.50;75.50
43671;DHT22;29267;50.906;7.248;2023-09-08T09:29:31;33.70;74.80
43671;DHT22;29267;50.906;7.248;2023-09-08T09:32:05;33.80;74.70
43671;DHT22;29267;50.906;7.248;2023-09-08T09:34:34;33.60;76.40
43671;DHT22;29267;50.906;7.248;2023-09-08T09:37:00;33.40;74.20
43671;DHT22;29267;50.906;7.248;2023-09-08T09:39:26;33.50;75.50
43671;DHT22;29267;50.906;7.248;2023-09-08T09:41:56;33.50;78.10
43671;DHT22;29267;50.906;7.248;2023-09-08T09:44:23;33.60;77.00
43671;DHT22;29267;50.906;7.248;2023-09-08T09:46:52;34.10;76.30
43671;DHT22;29267;50.906;7.248;2023-09-08T09:49:18;34.00;76.10
43671;DHT22;29267;50.906;7.248;2023-09-08T09:51:45;33.80;75.80
43671;DHT22;29267;50.906;7.248;2023-09-08T09:54:13;33.30;78.40
43671;DHT22;29267;50.906;7.248;2023-09-08T09:56:39;33.10;77.30
43671;DHT22;29267;50.906;7.248;2023-09-08T09:59:08;32.60;77.70
43671;DHT22;29267;50.906;7.248;2023-09-08T10:01:33;32.20;76.90
43671;DHT22;29267;50.906;7.248;2023-09-08T10:04:00;31.90;79.60
43671;DHT22;29267;50.906;7.248;2023-09-08T10:06:29;31.50;79.40
43671;DHT22;29267;50.906;7.248;2023-09-08T10:08:57;31.40;79.80
43671;DHT22;29267;50.906;7.248;2023-09-08T10:11:25;31.10;80.20
43671;DHT22;29267;50.906;7.248;2023-09-08T10:13:57;31.00;81.50
43671;DHT22;29267;50.906;7.248;2023-09-08T10:16:26;31.10;82.20
43671;DHT22;29267;50.906;7.248;2023-09-08T10:18:53;31.10;82.20
43671;DHT22;29267;50.906;7.248;2023-09-08T10:21:21;31.10;82.50
43671;DHT22;29267;50.906;7.248;2023-09-08T10:23:59;31.10;82.40
43671;DHT22;29267;50.906;7.248;2023-09-08T10:26:30;30.90;81.30
43671;DHT22;29267;50.906;7.248;2023-09-08T10:28:58;30.70;80.90
43671;DHT22;29267;50.906;7.248;2023-09-08T10:31:26;30.60;81.20
43671;DHT22;29267;50.906;7.248;2023-09-08T10:33:55;30.20;82.50
43671;DHT22;29267;50.906;7.248;2023-09-08T10:36:22;30.30;82.90
43671;DHT22;29267;50.906;7.248;2023-09-08T10:38:48;30.20;83.20
43671;DHT22;29267;50.906;7.248;2023-09-08T10:43:57;30.30;83.40
43671;DHT22;29267;50.906;7.248;2023-09-08T10:46:27;30.30;82.80
43671;DHT22;29267;50.906;7.248;2023-09-08T10:48:53;30.40;84.80
43671;DHT22;29267;50.906;7.248;2023-09-08T10:51:20;30.30;81.70
43671;DHT22;29267;50.906;7.248;2023-09-08T10:53:48;30.20;83.30
43671;DHT22;29267;50.906;7.248;2023-09-08T10:56:15;30.10;83.60
43671;DHT22;29267;50.906;7.248;2023-09-08T10:58:42;30.10;84.60
43671;DHT22;29267;50.906;7.248;2023-09-08T11:01:20;30.20;85.50
43671;DHT22;29267;50.906;7.248;2023-09-08T11:03:53;30.20;85.80
43671;DHT22;29267;50.906;7.248;2023-09-08T11:06:19;30.10;83.80
43671;DHT22;29267;50.906;7.248;2023-09-08T11:08:48;30.10;84.90
43671;DHT22;29267;50.906;7.248;2023-09-08T11:11:15;30.00;86.60
43671;DHT22;29267;50.906;7.248;2023-09-08T11:13:41;30.00;85.10
43671;DHT22;29267;50.906;7.248;2023-09-08T11:16:07;29.90;84.00
43671;DHT22;29267;50.906;7.248;2023-09-08T11:18:33;29.80;83.00
43671;DHT22;29267;50.906;7.248;2023-09-08T11:21:01;29.80;83.60
43671;DHT22;29267;50.906;7.248;2023-09-08T11:23:27;29.80;83.40
43671;DHT22;29267;50.906;7.248;2023-09-08T11:25:53;29.80;83.60
43671;DHT22;29267;50.906;7.248;2023-09-08T11:28:21;29.60;82.50
43671;DHT22;29267;50.906;7.248;2023-09-08T11:30:47;29.40;83.00
43671;DHT22;29267;50.906;7.248;2023-09-08T11:35:41;29.30;82.00
43671;DHT22;29267;50.906;7.248;2023-09-08T11:38:10;29.20;82.00
43671;DHT22;29267;50.906;7.248;2023-09-08T11:40:36;29.10;82.60
43671;DHT22;29267;50.906;7.248;2023-09-08T11:43:03;29.10;83.80
43671;DHT22;29267;50.906;7.248;2023-09-08T11:45:30;29.10;83.30
43671;DHT22;29267;50.906;7.248;2023-09-08T11:47:56;29.10;83.30
43671;DHT22;29267;50.906;7.248;2023-09-08T11:50:22;28.90;83.00
43671;DHT22;29267;50.906;7.248;2023-09-08T11:52:50;29.10;84.50
43671;DHT22;29267;50.906;7.248;2023-09-08T11:55:17;29.00;84.50
43671;DHT22;29267;50.906;7.248;2023-09-08T11:57:45;29.10;84.90
43671;DHT22;29267;50.906;7.248;2023-09-08T12:00:11;29.10;84.80
43671;DHT22;29267;50.906;7.248;2023-09-08T12:02:44;29.10;84.50
43671;DHT22;29267;50.906;7.248;2023-09-08T12:05:29;29.10;86.10
43671;DHT22;29267;50.906;7.248;2023-09-08T12:07:57;29.20;84.40
43671;DHT22;29267;50.906;7.248;2023-09-08T12:10:24;29.10;82.20
43671;DHT22;29267;50.906;7.248;2023-09-08T12:12:51;29.10;82.80
43671;DHT22;29267;50.906;7.248;2023-09-08T12:15:40;29.00;85.60
43671;DHT22;29267;50.906;7.248;2023-09-08T12:18:08;29.10;85.30
43671;DHT22;29267;50.906;7.248;2023-09-08T12:20:35;29.00;82.30
43671;DHT22;29267;50.906;7.248;2023-09-08T12:23:03;28.90;83.90
43671;DHT22;29267;50.906;7.248;2023-09-08T12:25:29;29.00;84.60
43671;DHT22;29267;50.906;7.248;2023-09-08T12:27:59;29.00;84.80
43671;DHT22;29267;50.906;7.248;2023-09-08T12:30:25;29.00;85.30
43671;DHT22;29267;50.906;7.248;2023-09-08T12:33:01;29.00;85.00
43671;DHT22;29267;50.906;7.248;2023-09-08T12:35:28;29.00;84.30
43671;DHT22;29267;50.906;7.248;2023-09-08T12:37:58;28.90;84.00
43671;DHT22;29267;50.906;7.248;2023-09-08T12:40:29;28.90;84.90
43671;DHT22;29267;50.906;7.248;2023-09-08T12:42:55;28.80;85.20
43671;DHT22;29267;50.906;7.248;2023-09-08T12:45:22;28.80;87.40
43671;DHT22;29267;50.906;7.248;2023-09-08T12:47:50;28.70;86.50
43671;DHT22;29267;50.906;7.248;2023-09-08T12:50:16;28.70;85.50
43671;DHT22;29267;50.906;7.248;2023-09-08T12:52:42;28.70;85.90
43671;DHT22;29267;50.906;7.248;2023-09-08T12:55:08;28.60;85.80
43671;DHT22;29267;50.906;7.248;2023-09-08T12:57:34;28.60;86.20
43671;DHT22;29267;50.906;7.248;2023-09-08T13:00:00;28.60;87.30
43671;DHT22;29267;50.906;7.248;2023-09-08T13:02:26;28.60;85.30
43671;DHT22;29267;50.906;7.248;2023-09-08T13:04:51;28.50;86.70
43671;DHT22;29267;50.906;7.248;2023-09-08T13:07:17;28.60;87.30
43671;DHT22;29267;50.906;7.248;2023-09-08T13:09:43;28.50;86.50
43671;DHT22;29267;50.906;7.248;2023-09-08T13:12:09;28.50;86.60
43671;DHT22;29267;50.906;7.248;2023-09-08T13:14:35;28.50;88.60
43671;DHT22;29267;50.906;7.248;2023-09-08T13:17:02;28.50;86.90
43671;DHT22;29267;50.906;7.248;2023-09-08T13:19:27;28.50;87.60
43671;DHT22;29267;50.906;7.248;2023-09-08T13:21:53;28.50;87.70
43671;DHT22;29267;50.906;7.248;2023-09-08T13:24:18;28.50;87.80
43671;DHT22;29267;50.906;7.248;2023-09-08T13:26:46;28.50;88.80
43671;DHT22;29267;50.906;7.248;2023-09-08T13:29:11;28.50;89.30
43671;DHT22;29267;50.906;7.248;2023-09-08T13:31:37;28.40;87.90
43671;DHT22;29267;50.906;7.248;2023-09-08T13:34:02;28.40;87.00
43671;DHT22;29267;50.906;7.248;2023-09-08T13:36:28;28.50;88.30
43671;DHT22;29267;50.906;7.248;2023-09-08T13:38:53;28.40;88.40
43671;DHT22;29267;50.906;7.248;2023-09-08T13:41:19;28.50;88.70
43671;DHT22;29267;50.906;7.248;2023-09-08T13:43:45;28.40;89.20
43671;DHT22;29267;50.906;7.248;2023-09-08T13:46:10;28.40;88.60
43671;DHT22;29267;50.906;7.248;2023-09-08T13:48:36;28.40;87.50
43671;DHT22;29267;50.906;7.248;2023-09-08T13:51:04;28.40;86.50
43671;DHT22;29267;50.906;7.248;2023-09-08T13:53:30;28.40;87.50
43671;DHT22;29267;50.906;7.248;2023-09-08T13:55:56;28.40;87.30
43671;DHT22;29267;50.906;7.248;2023-09-08T13:58:22;28.40;88.00
43671;DHT22;29267;50.906;7.248;2023-09-08T14:00:47;28.40;87.00
43671;DHT22;29267;50.906;7.248;2023-09-08T14:03:14;28.40;87.20
43671;DHT22;29267;50.906;7.248;2023-09-08T14:05:40;28.40;88.00
43671;DHT22;29267;50.906;7.248;2023-09-08T14:08:06;28.40;89.90
43671;DHT22;29267;50.906;7.248;2023-09-08T14:10:31;28.40;88.20
43671;DHT22;29267;50.906;7.248;2023-09-08T14:12:57;28.40;86.60
43671;DHT22;29267;50.906;7.248;2023-09-08T14:15:22;28.40;86.60
43671;DHT22;29267;50.906;7.248;2023-09-08T14:17:48;28.40;86.10
43671;DHT22;29267;50.906;7.248;2023-09-08T14:20:14;28.40;86.40
43671;DHT22;29267;50.906;7.248;2023-09-08T14:22:40;28.30;86.90
43671;DHT22;29267;50.906;7.248;2023-09-08T14:25:06;28.40;87.20
43671;DHT22;29267;50.906;7.248;2023-09-08T14:27:31;28.40;88.10
43671;DHT22;29267;50.906;7.248;2023-09-08T14:29:59;28.40;87.60
43671;DHT22;29267;50.906;7.248;2023-09-08T14:32:24;28.40;89.50
43671;DHT22;29267;50.906;7.248;2023-09-08T14:34:50;28.40;89.50
43671;DHT22;29267;50.906;7.248;2023-09-08T14:37:15;28.40;88.00
43671;DHT22;29267;50.906;7.248;2023-09-08T14:39:41;28.30;88.50
43671;DHT22;29267;50.906;7.248;2023-09-08T14:42:06;28.30;89.40
43671;DHT22;29267;50.906;7.248;2023-09-08T14:44:33;28.40;90.20
43671;DHT22;29267;50.906;7.248;2023-09-08T14:46:58;28.40;87.60
43671;DHT22;29267;50.906;7.248;2023-09-08T14:49:24;28.40;88.10
43671;DHT22;29267;50.906;7.248;2023-09-08T14:51:49;28.30;90.10
43671;DHT22;29267;50.906;7.248;2023-09-08T14:54:15;28.20;88.80
43671;DHT22;29267;50.906;7.248;2023-09-08T14:56:40;28.20;88.20
43671;DHT22;29267;50.906;7.248;2023-09-08T14:59:07;28.10;89.20
43671;DHT22;29267;50.906;7.248;2023-09-08T15:01:33;28.20;89.40
43671;DHT22;29267;50.906;7.248;2023-09-08T15:03:58;28.20;90.20
43671;DHT22;29267;50.906;7.248;2023-09-08T15:06:24;28.10;90.20
43671;DHT22;29267;50.906;7.248;2023-09-08T15:08:49;28.10;90.30
43671;DHT22;29267;50.906;7.248;2023-09-08T15:11:15;28.10;90.70
43671;DHT22;29267;50.906;7.248;2023-09-08T15:13:41;28.10;90.20
43671;DHT22;29267;50.906;7.248;2023-09-08T15:16:06;28.10;90.20
43671;DHT22;29267;50.906;7.248;2023-09-08T15:18:32;28.00;91.00
43671;DHT22;29267;50.906;7.248;2023-09-08T15:20:57;27.90;90.60
43671;DHT22;29267;50.906;7.248;2023-09-08T15:23:23;27.90;91.10
43671;DHT22;29267;50.906;7.248;2023-09-08T15:25:56;27.90;90.90
43671;DHT22;29267;50.906;7.248;2023-09-08T15:28:22;27.90;90.70
43671;DHT22;29267;50.906;7.248;2023-09-08T15:30:52;27.80;90.80
43671;DHT22;29267;50.906;7.248;2023-09-08T15:33:19;27.80;90.80
43671;DHT22;29267;50.906;7.248;2023-09-08T15:35:45;27.80;91.40